createdAt,value
2023-03-30T00:02:23.094Z,15.80
2023-03-30T00:04:51.915Z,15.80
2023-03-30T00:07:20.476Z,15.90
2023-03-30T00:09:48.311Z,15.80
2023-03-30T00:12:20.824Z,15.80
2023-03-30T00:14:49.217Z,15.80
2023-03-30T00:17:17.500Z,15.80
2023-03-30T00:19:46.752Z,15.90
2023-03-30T00:22:14.619Z,15.90
2023-03-30T00:24:42.519Z,15.90
2023-03-30T00:27:10.463Z,16.00
2023-03-30T00:29:38.298Z,16.00
2023-03-30T00:32:06.526Z,16.10
2023-03-30T00:34:34.433Z,16.10
2023-03-30T00:37:04.183Z,16.10
2023-03-30T00:39:33.699Z,16.00
2023-03-30T00:42:01.773Z,16.00
2023-03-30T00:45:15.829Z,16.00
2023-03-30T00:47:47.406Z,16.00
2023-03-30T00:50:17.847Z,16.00
2023-03-30T00:52:47.477Z,15.90
2023-03-30T00:55:15.397Z,15.90
2023-03-30T00:57:45.144Z,15.90
2023-03-30T01:00:15.316Z,15.90
2023-03-30T01:02:48.589Z,15.90
2023-03-30T01:05:16.784Z,15.90
2023-03-30T01:07:46.512Z,15.90
2023-03-30T01:10:15.788Z,15.90
2023-03-30T01:12:44.273Z,15.90
2023-03-30T01:15:13.040Z,15.90
2023-03-30T01:17:57.979Z,15.90
2023-03-30T01:20:51.919Z,15.90
2023-03-30T01:23:57.224Z,15.80
2023-03-30T01:26:46.027Z,15.80
2023-03-30T01:29:23.040Z,15.50
2023-03-30T01:32:06.038Z,15.50
2023-03-30T01:35:04.794Z,15.40
2023-03-30T01:38:06.127Z,15.30
2023-03-30T01:40:40.116Z,15.20
2023-03-30T01:43:15.893Z,15.10
2023-03-30T01:45:46.976Z,15.00
2023-03-30T01:48:19.842Z,15.00
2023-03-30T01:50:52.756Z,14.90
2023-03-30T01:53:28.727Z,14.80
2023-03-30T01:56:04.764Z,14.70
2023-03-30T01:58:36.632Z,14.50
2023-03-30T02:01:07.199Z,14.50
2023-03-30T02:03:40.044Z,14.50
2023-03-30T02:06:12.842Z,14.50
2023-03-30T02:08:42.322Z,14.60
2023-03-30T02:11:11.649Z,14.50
2023-03-30T02:13:41.416Z,14.60
2023-03-30T02:16:16.368Z,14.70
2023-03-30T02:18:46.876Z,14.70
2023-03-30T02:21:15.565Z,14.70
2023-03-30T02:23:46.654Z,14.70
2023-03-30T02:26:16.820Z,14.70
2023-03-30T02:28:46.690Z,14.70
2023-03-30T02:31:16.881Z,14.70
2023-03-30T02:33:59.081Z,14.80
2023-03-30T02:36:53.563Z,14.80
2023-03-30T02:39:30.735Z,14.80
2023-03-30T02:42:21.443Z,14.90
2023-03-30T02:44:58.218Z,14.90
2023-03-30T02:47:34.746Z,15.00
2023-03-30T02:50:07.007Z,15.00
2023-03-30T02:52:46.001Z,15.00
2023-03-30T02:55:22.560Z,15.00
2023-03-30T02:58:04.635Z,15.00
2023-03-30T03:00:42.569Z,14.90
2023-03-30T03:03:21.320Z,14.80
2023-03-30T03:05:54.558Z,14.70
2023-03-30T03:08:31.350Z,14.60
2023-03-30T03:11:01.028Z,14.40
2023-03-30T03:13:32.719Z,14.30
2023-03-30T03:16:04.049Z,14.10
2023-03-30T03:18:34.995Z,14.00
2023-03-30T03:21:03.204Z,14.00
2023-03-30T03:23:31.523Z,13.90
2023-03-30T03:26:00.212Z,13.80
2023-03-30T03:28:30.134Z,13.70
2023-03-30T03:31:07.424Z,13.70
2023-03-30T03:33:36.314Z,13.70
2023-03-30T03:36:36.364Z,13.70
2023-03-30T03:39:04.548Z,13.60
2023-03-30T03:41:33.056Z,13.60
2023-03-30T03:44:01.041Z,13.50
2023-03-30T03:46:30.487Z,13.50
2023-03-30T03:48:58.529Z,13.50
2023-03-30T03:51:26.487Z,13.50
2023-03-30T03:53:54.417Z,13.40
2023-03-30T03:56:23.360Z,13.40
2023-03-30T03:58:51.233Z,13.40
2023-03-30T04:01:19.194Z,13.30
2023-03-30T04:03:48.533Z,13.30
2023-03-30T04:06:17.468Z,13.30
2023-03-30T04:08:45.384Z,13.30
2023-03-30T04:11:22.286Z,13.30
2023-03-30T04:14:08.813Z,13.40
2023-03-30T04:16:57.771Z,13.40
2023-03-30T04:19:41.935Z,13.40
2023-03-30T04:22:25.465Z,13.40
2023-03-30T04:25:26.859Z,13.40
2023-03-30T04:28:08.496Z,13.40
2023-03-30T04:30:59.968Z,13.40
2023-03-30T04:33:51.959Z,13.40
2023-03-30T04:36:43.240Z,13.40
2023-03-30T04:39:30.369Z,13.40
2023-03-30T04:42:14.324Z,13.40
2023-03-30T04:45:18.271Z,13.40
2023-03-30T04:48:06.645Z,13.40
2023-03-30T04:51:06.119Z,13.40
2023-03-30T04:53:56.058Z,13.40
2023-03-30T04:56:56.259Z,13.40
2023-03-30T04:59:43.082Z,13.40
2023-03-30T05:02:37.522Z,13.30
2023-03-30T05:05:25.472Z,13.30
2023-03-30T05:08:16.134Z,13.30
2023-03-30T05:11:08.256Z,13.30
2023-03-30T05:13:59.063Z,13.40
2023-03-30T05:16:45.494Z,13.50
2023-03-30T05:19:29.407Z,13.40
2023-03-30T05:22:20.821Z,13.50
2023-03-30T05:24:49.774Z,13.60
2023-03-30T05:27:27.013Z,13.60
2023-03-30T05:30:19.308Z,13.60
2023-03-30T05:33:16.508Z,13.60
2023-03-30T05:36:16.724Z,13.70
2023-03-30T05:39:05.072Z,13.70
2023-03-30T05:41:50.501Z,13.70
2023-03-30T05:44:31.306Z,13.70
2023-03-30T05:47:18.037Z,13.80
2023-03-30T05:50:09.239Z,13.80
2023-03-30T05:52:48.199Z,13.80
2023-03-30T05:55:35.335Z,13.80
2023-03-30T05:58:12.513Z,13.80
2023-03-30T06:01:02.165Z,13.80
2023-03-30T06:03:36.742Z,13.90
2023-03-30T06:06:05.895Z,13.80
2023-03-30T06:08:34.095Z,13.80
2023-03-30T06:11:06.266Z,13.90
2023-03-30T06:13:45.224Z,13.90
2023-03-30T06:16:14.695Z,14.00
2023-03-30T06:18:42.957Z,14.00
2023-03-30T06:21:14.808Z,14.10
2023-03-30T06:24:03.196Z,14.10
2023-03-30T06:26:36.513Z,14.10
2023-03-30T06:29:05.265Z,14.10
2023-03-30T06:31:35.489Z,14.10
2023-03-30T06:34:22.518Z,14.10
2023-03-30T06:36:50.687Z,14.20
2023-03-30T06:39:19.141Z,14.20
2023-03-30T06:41:47.479Z,14.10
2023-03-30T06:44:41.452Z,14.20
2023-03-30T06:47:16.088Z,14.20
2023-03-30T06:49:44.030Z,14.30
2023-03-30T06:52:30.745Z,14.30
2023-03-30T06:54:59.505Z,14.10
2023-03-30T06:57:27.667Z,14.00
2023-03-30T06:59:56.501Z,14.00
2023-03-30T07:02:40.868Z,14.10
2023-03-30T07:05:18.646Z,14.10
2023-03-30T07:07:58.265Z,14.10
2023-03-30T07:10:26.707Z,14.00
2023-03-30T07:12:56.551Z,14.00
2023-03-30T07:15:25.240Z,14.00
2023-03-30T07:17:55.267Z,13.90
2023-03-30T07:20:23.467Z,13.80
2023-03-30T07:23:06.195Z,13.70
2023-03-30T07:25:34.838Z,13.50
2023-03-30T07:28:11.427Z,13.40
2023-03-30T07:30:39.882Z,13.30
2023-03-30T07:33:11.496Z,13.30
2023-03-30T07:35:45.014Z,13.20
2023-03-30T07:38:14.587Z,13.20
2023-03-30T07:40:48.542Z,13.10
2023-03-30T07:43:17.505Z,13.10
2023-03-30T07:45:46.565Z,13.00
2023-03-30T07:48:22.537Z,12.90
2023-03-30T07:50:50.747Z,12.90
2023-03-30T07:53:19.145Z,12.80
2023-03-30T07:55:50.627Z,12.80
2023-03-30T07:58:27.648Z,12.80
2023-03-30T08:00:56.258Z,12.70
2023-03-30T08:03:45.341Z,12.70
2023-03-30T08:06:14.195Z,12.70
2023-03-30T08:08:45.170Z,12.80
2023-03-30T08:11:15.378Z,12.90
2023-03-30T08:13:44.496Z,12.90
2023-03-30T08:16:12.966Z,12.90
2023-03-30T08:18:42.545Z,12.80
2023-03-30T08:21:12.664Z,12.80
2023-03-30T08:23:40.780Z,12.80
2023-03-30T08:26:08.766Z,12.80
2023-03-30T08:28:36.897Z,12.80
2023-03-30T08:31:06.526Z,12.80
2023-03-30T08:33:35.851Z,12.80
2023-03-30T08:36:04.222Z,12.90
2023-03-30T08:38:33.800Z,12.90
2023-03-30T08:41:02.156Z,12.90
2023-03-30T08:43:40.398Z,13.10
2023-03-30T08:46:13.588Z,13.10
2023-03-30T08:48:42.955Z,13.10
2023-03-30T08:51:21.868Z,13.10
2023-03-30T08:53:54.222Z,13.10
2023-03-30T08:56:26.429Z,13.00
2023-03-30T08:59:03.455Z,13.00
2023-03-30T09:01:38.141Z,12.90
2023-03-30T09:04:18.299Z,12.90
2023-03-30T09:06:51.848Z,12.80
2023-03-30T09:09:23.429Z,12.80
2023-03-30T09:11:57.758Z,12.80
2023-03-30T09:14:33.072Z,12.80
2023-03-30T09:17:08.572Z,12.90
2023-03-30T09:19:43.947Z,12.90
2023-03-30T09:22:16.097Z,12.90
2023-03-30T09:24:45.313Z,13.00
2023-03-30T09:27:18.804Z,13.00
2023-03-30T09:29:49.673Z,13.10
2023-03-30T09:32:30.777Z,13.30
2023-03-30T09:35:04.564Z,13.40
2023-03-30T09:37:32.737Z,13.60
2023-03-30T09:40:12.011Z,13.70
2023-03-30T09:42:48.768Z,13.80
2023-03-30T09:45:22.136Z,13.80
2023-03-30T09:47:50.054Z,13.70
2023-03-30T09:50:22.186Z,13.70
2023-03-30T09:52:57.190Z,13.80
2023-03-30T09:55:31.546Z,13.80
2023-03-30T09:58:21.007Z,13.70
2023-03-30T10:01:03.419Z,13.60
2023-03-30T10:03:31.705Z,13.60
2023-03-30T10:06:06.289Z,13.60
2023-03-30T10:08:38.176Z,13.60
2023-03-30T10:11:07.974Z,13.70
2023-03-30T10:13:40.211Z,13.80
2023-03-30T10:16:12.242Z,14.00
2023-03-30T10:18:43.657Z,14.10
2023-03-30T10:21:22.790Z,14.30
2023-03-30T10:24:03.770Z,14.40
2023-03-30T10:26:34.599Z,14.50
2023-03-30T10:29:05.007Z,14.60
2023-03-30T10:31:36.858Z,14.80
2023-03-30T10:34:08.721Z,14.80
2023-03-30T10:36:40.688Z,14.80
2023-03-30T10:39:13.846Z,14.80
2023-03-30T10:41:43.733Z,14.60
2023-03-30T10:44:20.781Z,14.60
2023-03-30T10:46:51.910Z,14.60
2023-03-30T10:49:32.942Z,14.60
2023-03-30T10:52:09.294Z,14.60
2023-03-30T10:54:43.936Z,14.70
2023-03-30T10:57:16.843Z,14.80
2023-03-30T11:00:09.746Z,14.80
2023-03-30T11:02:50.560Z,14.80
2023-03-30T11:05:22.761Z,14.80
2023-03-30T11:07:56.761Z,14.90
2023-03-30T11:10:31.464Z,15.00
2023-03-30T11:13:03.818Z,15.20
2023-03-30T11:15:36.893Z,15.20
2023-03-30T11:18:11.247Z,15.40
2023-03-30T11:20:44.508Z,15.50
2023-03-30T11:23:18.964Z,15.50
2023-03-30T11:25:56.348Z,15.50
2023-03-30T11:28:37.836Z,15.60
2023-03-30T11:31:15.503Z,15.80
2023-03-30T11:33:51.737Z,15.80
2023-03-30T11:36:27.751Z,15.70
2023-03-30T11:39:03.772Z,15.90
2023-03-30T11:41:37.697Z,16.00
2023-03-30T11:44:09.786Z,16.20
2023-03-30T11:46:46.183Z,16.50
2023-03-30T11:49:32.419Z,16.50
2023-03-30T11:52:13.905Z,16.40
2023-03-30T11:55:11.993Z,15.90
2023-03-30T11:57:46.215Z,15.80
2023-03-30T12:00:27.535Z,15.90
2023-03-30T12:03:03.567Z,15.90
2023-03-30T12:05:36.107Z,16.20
2023-03-30T12:08:18.247Z,16.50
2023-03-30T12:10:51.968Z,16.60
2023-03-30T12:13:21.481Z,16.50
2023-03-30T12:15:56.716Z,16.60
2023-03-30T12:18:33.950Z,16.40
2023-03-30T12:21:14.316Z,16.30
2023-03-30T12:23:48.160Z,16.30
2023-03-30T12:26:25.950Z,16.30
2023-03-30T12:29:36.119Z,16.20
2023-03-30T12:32:19.785Z,16.20
2023-03-30T12:34:47.730Z,16.60
2023-03-30T12:37:19.674Z,17.20
2023-03-30T12:39:50.112Z,17.70
2023-03-30T12:42:27.833Z,18.50
2023-03-30T12:45:13.913Z,19.00
2023-03-30T12:48:07.311Z,19.60
2023-03-30T12:50:42.244Z,19.90
2023-03-30T12:53:41.967Z,19.60
2023-03-30T12:56:15.822Z,19.00
2023-03-30T12:58:57.214Z,18.70
2023-03-30T13:01:49.239Z,18.30
2023-03-30T13:04:23.246Z,18.00
2023-03-30T13:06:54.805Z,18.00
2023-03-30T13:09:34.731Z,18.40
2023-03-30T13:12:35.398Z,18.10
2023-03-30T13:15:07.114Z,17.80
2023-03-30T13:17:58.584Z,18.30
2023-03-30T13:20:34.549Z,18.90
2023-03-30T13:23:28.350Z,18.60
2023-03-30T13:26:07.804Z,17.50
2023-03-30T13:29:04.957Z,16.90
2023-03-30T13:31:57.093Z,17.10
2023-03-30T13:34:58.888Z,17.90
2023-03-30T13:37:54.576Z,19.10
2023-03-30T13:40:41.481Z,19.40
2023-03-30T13:43:22.160Z,19.10
2023-03-30T13:46:05.797Z,19.50
2023-03-30T13:49:00.822Z,19.50
2023-03-30T13:51:30.891Z,19.60
2023-03-30T13:54:02.757Z,19.20
2023-03-30T13:56:33.074Z,18.90
2023-03-30T13:59:06.116Z,18.40
2023-03-30T14:01:35.387Z,18.50
2023-03-30T14:04:04.730Z,18.60
2023-03-30T14:06:35.308Z,19.00
2023-03-30T14:09:14.462Z,19.30
2023-03-30T14:11:45.789Z,19.40
2023-03-30T14:14:21.954Z,19.40
2023-03-30T14:16:50.826Z,18.90
2023-03-30T14:19:23.935Z,18.40
2023-03-30T14:21:55.476Z,18.30
2023-03-30T14:24:31.030Z,18.20
2023-03-30T14:27:07.332Z,18.10
2023-03-30T14:29:35.380Z,18.00
2023-03-30T14:32:09.220Z,17.70
2023-03-30T14:34:37.918Z,17.30
2023-03-30T14:37:07.777Z,17.10
2023-03-30T14:39:41.306Z,17.30
2023-03-30T14:42:15.232Z,17.50
2023-03-30T14:44:44.004Z,17.30
2023-03-30T14:47:12.241Z,17.10
2023-03-30T14:49:43.368Z,17.10
2023-03-30T14:52:16.766Z,16.90
2023-03-30T14:55:01.951Z,16.80
2023-03-30T14:57:37.740Z,16.90
2023-03-30T15:00:21.065Z,16.80
2023-03-30T15:02:53.502Z,16.70
2023-03-30T15:05:23.995Z,17.00
2023-03-30T15:07:53.654Z,17.30
2023-03-30T15:10:25.524Z,18.20
2023-03-30T15:12:56.011Z,18.90
2023-03-30T15:15:28.072Z,19.30
2023-03-30T15:17:57.261Z,19.70
2023-03-30T15:20:27.885Z,19.80
2023-03-30T15:22:56.772Z,19.50
2023-03-30T15:25:33.305Z,18.80
2023-03-30T15:28:05.192Z,18.40
2023-03-30T15:30:36.524Z,18.00
2023-03-30T15:33:05.866Z,17.60
2023-03-30T15:35:35.614Z,17.30
2023-03-30T15:38:13.620Z,17.00
2023-03-30T15:40:44.666Z,16.80
2023-03-30T15:43:14.270Z,16.20
2023-03-30T15:45:47.359Z,15.80
2023-03-30T15:48:18.600Z,15.50
2023-03-30T15:50:52.095Z,15.30
2023-03-30T15:53:29.744Z,15.40
2023-03-30T15:56:01.534Z,15.40
2023-03-30T15:58:29.712Z,15.50
2023-03-30T16:00:58.158Z,15.60
2023-03-30T16:03:40.319Z,15.60
2023-03-30T16:06:11.852Z,15.70
2023-03-30T16:08:43.296Z,15.70
2023-03-30T16:11:15.187Z,15.70
2023-03-30T16:13:44.338Z,15.60
2023-03-30T16:16:13.979Z,15.70
2023-03-30T16:18:43.591Z,15.70
2023-03-30T16:21:12.505Z,15.80
2023-03-30T16:23:40.653Z,15.80
2023-03-30T16:26:09.753Z,15.80
2023-03-30T16:28:40.799Z,15.70
2023-03-30T16:31:18.217Z,15.60
2023-03-30T16:33:46.468Z,15.60
2023-03-30T16:36:16.295Z,15.50
2023-03-30T16:38:45.000Z,15.50
2023-03-30T16:41:17.212Z,15.50
2023-03-30T16:43:46.989Z,15.40
2023-03-30T16:46:15.883Z,15.30
2023-03-30T16:48:44.232Z,15.20
2023-03-30T16:51:12.624Z,15.20
2023-03-30T16:53:40.890Z,15.20
2023-03-30T16:56:15.813Z,15.30
2023-03-30T16:58:43.744Z,15.20
2023-03-30T17:01:16.226Z,15.10
2023-03-30T17:03:44.220Z,15.10
2023-03-30T17:06:12.142Z,15.10
2023-03-30T17:08:42.384Z,15.00
2023-03-30T17:11:13.403Z,14.90
2023-03-30T17:13:41.641Z,14.90
2023-03-30T17:16:12.555Z,14.70
2023-03-30T17:18:42.547Z,14.70
2023-03-30T17:21:16.219Z,14.60
2023-03-30T17:23:46.477Z,14.60
2023-03-30T17:26:14.552Z,14.50
2023-03-30T17:28:43.331Z,14.50
2023-03-30T17:31:16.285Z,14.40
2023-03-30T17:33:46.223Z,14.40
2023-03-30T17:36:17.725Z,14.30
2023-03-30T17:38:45.767Z,14.20
2023-03-30T17:41:15.565Z,14.20
2023-03-30T17:43:44.378Z,14.10
2023-03-30T17:46:12.893Z,14.00
2023-03-30T17:48:41.343Z,14.00
2023-03-30T17:51:10.671Z,13.90
2023-03-30T17:53:38.874Z,13.90
2023-03-30T17:56:07.248Z,13.90
2023-03-30T17:58:36.865Z,13.80
2023-03-30T18:01:07.931Z,13.80
2023-03-30T18:03:39.020Z,13.80
2023-03-30T18:06:08.210Z,13.70
2023-03-30T18:08:38.985Z,13.70
2023-03-30T18:11:07.204Z,13.70
2023-03-30T18:13:35.631Z,13.70
2023-03-30T18:16:03.639Z,13.60
2023-03-30T18:18:32.581Z,13.60
2023-03-30T18:21:04.009Z,13.60
2023-03-30T18:23:34.848Z,13.60
2023-03-30T18:26:10.322Z,13.60
2023-03-30T18:28:42.214Z,13.60
2023-03-30T18:31:10.552Z,13.50
2023-03-30T18:33:39.195Z,13.60
2023-03-30T18:36:12.287Z,13.50
2023-03-30T18:38:40.970Z,13.50
2023-03-30T18:41:12.423Z,13.40
2023-03-30T18:43:40.459Z,13.40
2023-03-30T18:46:12.747Z,13.40
2023-03-30T18:48:41.616Z,13.30
2023-03-30T18:51:12.491Z,13.30
2023-03-30T18:53:40.561Z,13.20
2023-03-30T18:56:13.630Z,13.20
2023-03-30T18:58:42.786Z,13.10
2023-03-30T19:01:13.297Z,13.10
2023-03-30T19:03:41.939Z,13.10
2023-03-30T19:06:13.817Z,13.00
2023-03-30T19:08:43.335Z,12.90
2023-03-30T19:11:16.911Z,13.00
2023-03-30T19:13:47.029Z,13.00
2023-03-30T19:16:16.563Z,12.90
2023-03-30T19:18:44.499Z,12.90
2023-03-30T19:21:16.494Z,12.90
2023-03-30T19:23:44.754Z,12.80
2023-03-30T19:26:14.131Z,12.80
2023-03-30T19:28:42.066Z,12.70
2023-03-30T19:31:12.353Z,12.60
2023-03-30T19:33:41.445Z,12.60
2023-03-30T19:36:10.310Z,12.50
2023-03-30T19:38:38.374Z,12.50
2023-03-30T19:41:06.781Z,12.40
2023-03-30T19:43:36.497Z,12.40
2023-03-30T19:46:05.071Z,12.40
2023-03-30T19:48:33.206Z,12.40
2023-03-30T19:51:01.990Z,12.40
2023-03-30T19:53:29.972Z,12.30
2023-03-30T19:55:59.267Z,12.30
2023-03-30T19:58:27.390Z,12.20
2023-03-30T20:00:57.444Z,12.10
2023-03-30T20:03:26.580Z,12.10
2023-03-30T20:05:55.168Z,12.10
2023-03-30T20:08:24.897Z,12.00
2023-03-30T20:10:53.417Z,11.90
2023-03-30T20:13:23.898Z,11.90
2023-03-30T20:15:57.050Z,11.90
2023-03-30T20:18:25.259Z,11.90
2023-03-30T20:20:53.162Z,11.80
2023-03-30T20:23:21.068Z,11.80
2023-03-30T20:25:49.399Z,11.70
2023-03-30T20:28:17.874Z,11.80
2023-03-30T20:30:45.848Z,11.70
2023-03-30T20:33:15.248Z,11.60
2023-03-30T20:35:43.390Z,11.60
2023-03-30T20:38:11.356Z,11.50
2023-03-30T20:40:39.211Z,11.50
2023-03-30T20:43:10.188Z,11.50
2023-03-30T20:45:45.939Z,11.50
2023-03-30T20:48:26.323Z,11.40
2023-03-30T20:50:55.823Z,11.40
2023-03-30T20:53:25.468Z,11.40
2023-03-30T20:55:53.361Z,11.40
2023-03-30T20:58:22.331Z,11.40
2023-03-30T21:00:51.943Z,11.40
2023-03-30T21:03:25.943Z,11.40
2023-03-30T21:06:00.686Z,11.50
2023-03-30T21:08:29.439Z,11.50
2023-03-30T21:10:57.336Z,11.40
2023-03-30T21:13:25.578Z,11.50
2023-03-30T21:15:57.368Z,11.50
2023-03-30T21:18:27.569Z,11.50
2023-03-30T21:20:56.332Z,11.40
2023-03-30T21:23:25.448Z,11.40
2023-03-30T21:25:57.226Z,11.40
2023-03-30T21:28:27.076Z,11.40
2023-03-30T21:30:55.807Z,11.50
2023-03-30T21:33:24.282Z,11.40
2023-03-30T21:35:54.786Z,11.50
2023-03-30T21:38:24.353Z,11.50
2023-03-30T21:40:56.881Z,11.50
2023-03-30T21:43:25.328Z,11.50
2023-03-30T21:45:54.429Z,11.50
2023-03-30T21:48:23.478Z,11.50
2023-03-30T21:50:58.980Z,11.50
2023-03-30T21:53:27.508Z,11.50
2023-03-30T21:55:56.231Z,11.50
2023-03-30T21:58:24.842Z,11.60
2023-03-30T22:01:01.195Z,11.60
2023-03-30T22:03:37.184Z,11.60
2023-03-30T22:06:08.633Z,11.60
2023-03-30T22:08:37.029Z,11.60
2023-03-30T22:11:07.080Z,11.60
2023-03-30T22:13:35.305Z,11.60
2023-03-30T22:16:05.818Z,11.70
2023-03-30T22:18:34.437Z,11.70
2023-03-30T22:21:03.573Z,11.70
2023-03-30T22:23:33.200Z,11.70
2023-03-30T22:26:01.341Z,11.80
2023-03-30T22:28:29.320Z,11.80
2023-03-30T22:30:57.261Z,11.80
2023-03-30T22:33:25.705Z,11.80
2023-03-30T22:35:54.368Z,11.80
2023-03-30T22:38:22.232Z,11.80
2023-03-30T22:40:51.469Z,11.80
2023-03-30T22:43:19.374Z,11.70
2023-03-30T22:45:47.285Z,11.70
2023-03-30T22:48:15.279Z,11.60
2023-03-30T22:50:43.154Z,11.60
2023-03-30T22:53:11.105Z,11.60
2023-03-30T22:55:39.138Z,11.60
2023-03-30T22:58:11.419Z,11.50
2023-03-30T23:00:39.311Z,11.50
2023-03-30T23:03:07.479Z,11.50
2023-03-30T23:05:35.431Z,11.50
2023-03-30T23:08:03.381Z,11.60
2023-03-30T23:10:33.896Z,11.60
2023-03-30T23:13:01.926Z,11.60
2023-03-30T23:15:32.253Z,11.60
2023-03-30T23:18:00.602Z,11.70
2023-03-30T23:20:28.599Z,11.70
2023-03-30T23:22:56.659Z,11.70
2023-03-30T23:25:25.346Z,11.70
2023-03-30T23:27:53.320Z,11.70
2023-03-30T23:30:21.500Z,11.80
2023-03-30T23:32:50.970Z,11.80
2023-03-30T23:35:18.969Z,11.70
2023-03-30T23:37:46.902Z,11.70
2023-03-30T23:40:15.395Z,11.70
2023-03-30T23:42:43.602Z,11.70
2023-03-30T23:45:11.950Z,11.70
2023-03-30T23:47:39.818Z,11.70
2023-03-30T23:50:10.862Z,11.70
2023-03-30T23:52:38.743Z,11.70
2023-03-30T23:55:06.751Z,11.80
2023-03-30T23:57:34.769Z,11.80
